sensor_id;sensor_type;location;lat;lon;timestamp;temperature;humidity
20070;DHT22;10195;50.868;4.382;2023-03-23T00:02:03;13.90;99.90
20070;DHT22;10195;50.868;4.382;2023-03-23T00:04:29;13.90;99.90
20070;DHT22;10195;50.868;4.382;2023-03-23T00:06:54;13.90;99.90
20070;DHT22;10195;50.868;4.382;2023-03-23T00:09:20;13.80;99.90
20070;DHT22;10195;50.868;4.382;2023-03-23T00:11:49;13.90;99.90
20070;DHT22;10195;50.868;4.382;2023-03-23T00:14:16;13.90;99.90
20070;DHT22;10195;50.868;4.382;2023-03-23T00:16:47;13.90;99.90
20070;DHT22;10195;50.868;4.382;2023-03-23T00:19:14;13.90;99.90
20070;DHT22;10195;50.868;4.382;2023-03-23T00:21:41;13.80;99.90
20070;DHT22;10195;50.868;4.382;2023-03-23T00:24:17;13.80;99.90
20070;DHT22;10195;50.868;4.382;2023-03-23T00:26:48;13.70;99.90
20070;DHT22;10195;50.868;4.382;2023-03-23T00:29:22;13.80;99.90
20070;DHT22;10195;50.868;4.382;2023-03-23T00:31:48;13.90;99.90
20070;DHT22;10195;50.868;4.382;2023-03-23T00:34:17;13.80;99.90
20070;DHT22;10195;50.868;4.382;2023-03-23T00:36:48;13.80;99.90
20070;DHT22;10195;50.868;4.382;2023-03-23T00:39:15;13.70;99.90
20070;DHT22;10195;50.868;4.382;2023-03-23T00:41:42;13.70;99.90
20070;DHT22;10195;50.868;4.382;2023-03-23T00:44:08;13.60;99.90
20070;DHT22;10195;50.868;4.382;2023-03-23T00:46:34;13.60;99.90
20070;DHT22;10195;50.868;4.382;2023-03-23T00:49:13;13.60;99.90
20070;DHT22;10195;50.868;4.382;2023-03-23T00:51:40;13.60;99.90
20070;DHT22;10195;50.868;4.382;2023-03-23T00:54:06;13.70;99.90
20070;DHT22;10195;50.868;4.382;2023-03-23T00:56:32;13.90;99.90
20070;DHT22;10195;50.868;4.382;2023-03-23T00:58:58;13.70;99.90
20070;DHT22;10195;50.868;4.382;2023-03-23T01:01:23;13.80;99.90
20070;DHT22;10195;50.868;4.382;2023-03-23T01:03:49;13.80;99.90
20070;DHT22;10195;50.868;4.382;2023-03-23T01:06:15;13.80;99.90
20070;DHT22;10195;50.868;4.382;2023-03-23T01:08:41;13.90;99.90
20070;DHT22;10195;50.868;4.382;2023-03-23T01:11:13;13.90;99.90
20070;DHT22;10195;50.868;4.382;2023-03-23T01:13:40;14.00;99.90
20070;DHT22;10195;50.868;4.382;2023-03-23T01:16:07;14.00;99.90
20070;DHT22;10195;50.868;4.382;2023-03-23T01:18:33;14.10;99.90
20070;DHT22;10195;50.868;4.382;2023-03-23T01:21:04;14.10;99.90
20070;DHT22;10195;50.868;4.382;2023-03-23T01:23:32;14.10;99.90
20070;DHT22;10195;50.868;4.382;2023-03-23T01:28:31;14.00;99.90
20070;DHT22;10195;50.868;4.382;2023-03-23T01:31:04;14.00;99.90
20070;DHT22;10195;50.868;4.382;2023-03-23T01:33:31;14.00;99.90
20070;DHT22;10195;50.868;4.382;2023-03-23T01:35:57;14.00;99.90
20070;DHT22;10195;50.868;4.382;2023-03-23T01:38:22;14.00;99.90
20070;DHT22;10195;50.868;4.382;2023-03-23T01:40:48;13.90;99.90
20070;DHT22;10195;50.868;4.382;2023-03-23T01:43:15;13.90;99.90
20070;DHT22;10195;50.868;4.382;2023-03-23T01:45:41;13.90;99.90
20070;DHT22;10195;50.868;4.382;2023-03-23T01:48:21;13.80;99.90
20070;DHT22;10195;50.868;4.382;2023-03-23T01:53:19;13.90;99.90
20070;DHT22;10195;50.868;4.382;2023-03-23T01:55:48;13.80;99.90
20070;DHT22;10195;50.868;4.382;2023-03-23T01:58:17;13.70;99.90
20070;DHT22;10195;50.868;4.382;2023-03-23T02:00:45;13.80;99.90
20070;DHT22;10195;50.868;4.382;2023-03-23T02:03:12;13.80;99.90
20070;DHT22;10195;50.868;4.382;2023-03-23T02:05:40;13.80;99.90
20070;DHT22;10195;50.868;4.382;2023-03-23T02:08:08;13.80;99.90
20070;DHT22;10195;50.868;4.382;2023-03-23T02:10:35;13.90;99.90
20070;DHT22;10195;50.868;4.382;2023-03-23T02:13:02;13.90;99.90
20070;DHT22;10195;50.868;4.382;2023-03-23T02:15:45;13.80;99.90
20070;DHT22;10195;50.868;4.382;2023-03-23T02:21:13;13.80;99.90
20070;DHT22;10195;50.868;4.382;2023-03-23T02:26:53;13.70;99.90
20070;DHT22;10195;50.868;4.382;2023-03-23T02:29:25;13.60;99.90
20070;DHT22;10195;50.868;4.382;2023-03-23T02:34:44;13.50;99.90
20070;DHT22;10195;50.868;4.382;2023-03-23T02:37:23;13.60;99.90
20070;DHT22;10195;50.868;4.382;2023-03-23T02:39:57;13.50;99.90
20070;DHT22;10195;50.868;4.382;2023-03-23T02:42:33;13.50;99.90
20070;DHT22;10195;50.868;4.382;2023-03-23T02:45:04;13.60;99.90
20070;DHT22;10195;50.868;4.382;2023-03-23T02:47:32;13.60;99.90
20070;DHT22;10195;50.868;4.382;2023-03-23T02:50:00;13.70;99.90
20070;DHT22;10195;50.868;4.382;2023-03-23T02:52:29;13.70;99.90
20070;DHT22;10195;50.868;4.382;2023-03-23T02:54:56;13.70;99.90
20070;DHT22;10195;50.868;4.382;2023-03-23T02:57:24;13.60;99.90
20070;DHT22;10195;50.868;4.382;2023-03-23T02:59:51;13.70;99.90
20070;DHT22;10195;50.868;4.382;2023-03-23T03:02:28;13.70;99.90
20070;DHT22;10195;50.868;4.382;2023-03-23T03:10:57;13.60;99.90
20070;DHT22;10195;50.868;4.382;2023-03-23T03:13:32;13.70;99.90
20070;DHT22;10195;50.868;4.382;2023-03-23T03:16:07;13.60;99.90
20070;DHT22;10195;50.868;4.382;2023-03-23T03:18:42;13.50;99.90
20070;DHT22;10195;50.868;4.382;2023-03-23T03:21:12;13.50;99.90
20070;DHT22;10195;50.868;4.382;2023-03-23T03:23:41;13.60;99.90
20070;DHT22;10195;50.868;4.382;2023-03-23T03:26:11;13.60;99.90
20070;DHT22;10195;50.868;4.382;2023-03-23T03:28:38;13.60;99.90
20070;DHT22;10195;50.868;4.382;2023-03-23T03:31:05;13.70;99.90
20070;DHT22;10195;50.868;4.382;2023-03-23T03:33:32;13.70;99.90
20070;DHT22;10195;50.868;4.382;2023-03-23T03:36:03;13.60;99.90
20070;DHT22;10195;50.868;4.382;2023-03-23T03:38:41;13.60;99.90
20070;DHT22;10195;50.868;4.382;2023-03-23T03:41:07;13.60;99.90
20070;DHT22;10195;50.868;4.382;2023-03-23T03:43:33;13.60;99.90
20070;DHT22;10195;50.868;4.382;2023-03-23T03:46:00;13.60;99.90
20070;DHT22;10195;50.868;4.382;2023-03-23T03:48:26;13.70;99.90
20070;DHT22;10195;50.868;4.382;2023-03-23T03:50:51;13.70;99.90
20070;DHT22;10195;50.868;4.382;2023-03-23T03:53:17;13.60;99.90
20070;DHT22;10195;50.868;4.382;2023-03-23T03:55:43;13.60;99.90
20070;DHT22;10195;50.868;4.382;2023-03-23T03:58:10;13.60;99.90
20070;DHT22;10195;50.868;4.382;2023-03-23T04:00:36;13.60;99.90
20070;DHT22;10195;50.868;4.382;2023-03-23T04:03:02;13.70;99.90
20070;DHT22;10195;50.868;4.382;2023-03-23T04:05:27;13.60;99.90
20070;DHT22;10195;50.868;4.382;2023-03-23T04:07:56;13.60;99.90
20070;DHT22;10195;50.868;4.382;2023-03-23T04:10:27;13.60;99.90
20070;DHT22;10195;50.868;4.382;2023-03-23T04:12:53;13.60;99.90
20070;DHT22;10195;50.868;4.382;2023-03-23T04:15:18;13.50;99.90
20070;DHT22;10195;50.868;4.382;2023-03-23T04:17:44;13.60;99.90
20070;DHT22;10195;50.868;4.382;2023-03-23T04:20:11;13.60;99.90
20070;DHT22;10195;50.868;4.382;2023-03-23T04:22:46;13.50;99.90
20070;DHT22;10195;50.868;4.382;2023-03-23T04:25:15;13.50;99.90
20070;DHT22;10195;50.868;4.382;2023-03-23T04:27:43;13.50;99.90
20070;DHT22;10195;50.868;4.382;2023-03-23T04:30:12;13.50;99.90
20070;DHT22;10195;50.868;4.382;2023-03-23T04:32:39;13.50;99.90
20070;DHT22;10195;50.868;4.382;2023-03-23T04:35:09;13.60;99.90
20070;DHT22;10195;50.868;4.382;2023-03-23T04:37:37;13.50;99.90
20070;DHT22;10195;50.868;4.382;2023-03-23T04:40:03;13.50;99.90
20070;DHT22;10195;50.868;4.382;2023-03-23T04:42:36;13.50;99.90
20070;DHT22;10195;50.868;4.382;2023-03-23T04:45:03;13.50;99.90
20070;DHT22;10195;50.868;4.382;2023-03-23T04:47:33;13.60;99.90
20070;DHT22;10195;50.868;4.382;2023-03-23T04:49:59;13.50;99.90
20070;DHT22;10195;50.868;4.382;2023-03-23T04:52:26;13.40;99.90
20070;DHT22;10195;50.868;4.382;2023-03-23T04:54:54;13.30;99.90
20070;DHT22;10195;50.868;4.382;2023-03-23T04:57:21;13.30;99.90
20070;DHT22;10195;50.868;4.382;2023-03-23T04:59:47;13.30;99.90
20070;DHT22;10195;50.868;4.382;2023-03-23T05:02:13;13.30;99.90
20070;DHT22;10195;50.868;4.382;2023-03-23T05:04:39;13.20;99.90
20070;DHT22;10195;50.868;4.382;2023-03-23T05:07:10;13.20;99.90
20070;DHT22;10195;50.868;4.382;2023-03-23T05:09:36;13.20;99.90
20070;DHT22;10195;50.868;4.382;2023-03-23T05:12:06;13.20;99.90
20070;DHT22;10195;50.868;4.382;2023-03-23T05:14:33;13.20;99.90
20070;DHT22;10195;50.868;4.382;2023-03-23T05:16:58;13.30;99.90
20070;DHT22;10195;50.868;4.382;2023-03-23T05:19:24;13.30;99.90
20070;DHT22;10195;50.868;4.382;2023-03-23T05:21:49;13.30;99.90
20070;DHT22;10195;50.868;4.382;2023-03-23T05:24:15;13.20;99.90
20070;DHT22;10195;50.868;4.382;2023-03-23T05:26:41;13.20;99.90
20070;DHT22;10195;50.868;4.382;2023-03-23T05:29:06;13.30;99.90
20070;DHT22;10195;50.868;4.382;2023-03-23T05:31:32;13.30;99.90
20070;DHT22;10195;50.868;4.382;2023-03-23T05:33:58;13.30;99.90
20070;DHT22;10195;50.868;4.382;2023-03-23T05:36:24;13.30;99.90
20070;DHT22;10195;50.868;4.382;2023-03-23T05:38:53;13.30;99.90
20070;DHT22;10195;50.868;4.382;2023-03-23T05:41:18;13.30;99.90
20070;DHT22;10195;50.868;4.382;2023-03-23T05:43:44;13.40;99.90
20070;DHT22;10195;50.868;4.382;2023-03-23T05:46:10;13.30;99.90
20070;DHT22;10195;50.868;4.382;2023-03-23T05:48:35;13.40;99.90
20070;DHT22;10195;50.868;4.382;2023-03-23T05:51:02;13.40;99.90
20070;DHT22;10195;50.868;4.382;2023-03-23T05:53:28;13.40;99.90
20070;DHT22;10195;50.868;4.382;2023-03-23T05:56:00;13.40;99.90
20070;DHT22;10195;50.868;4.382;2023-03-23T05:58:26;13.50;99.90
20070;DHT22;10195;50.868;4.382;2023-03-23T06:00:52;13.50;99.90
20070;DHT22;10195;50.868;4.382;2023-03-23T06:03:17;13.50;99.90
20070;DHT22;10195;50.868;4.382;2023-03-23T06:05:44;13.50;99.90
20070;DHT22;10195;50.868;4.382;2023-03-23T06:08:11;13.40;99.90
20070;DHT22;10195;50.868;4.382;2023-03-23T06:10:37;13.40;99.90
20070;DHT22;10195;50.868;4.382;2023-03-23T06:13:04;13.40;99.90
20070;DHT22;10195;50.868;4.382;2023-03-23T06:15:31;13.50;99.90
20070;DHT22;10195;50.868;4.382;2023-03-23T06:18:01;13.50;99.90
20070;DHT22;10195;50.868;4.382;2023-03-23T06:20:28;13.60;99.90
20070;DHT22;10195;50.868;4.382;2023-03-23T06:22:54;13.50;99.90
20070;DHT22;10195;50.868;4.382;2023-03-23T06:25:21;13.60;99.90
20070;DHT22;10195;50.868;4.382;2023-03-23T06:27:47;13.60;99.90
20070;DHT22;10195;50.868;4.382;2023-03-23T06:30:14;13.70;99.90
20070;DHT22;10195;50.868;4.382;2023-03-23T06:32:42;13.60;99.90
20070;DHT22;10195;50.868;4.382;2023-03-23T06:35:11;13.60;99.90
20070;DHT22;10195;50.868;4.382;2023-03-23T06:37:38;13.60;99.90
20070;DHT22;10195;50.868;4.382;2023-03-23T06:40:04;13.60;99.90
20070;DHT22;10195;50.868;4.382;2023-03-23T06:42:33;13.50;99.90
20070;DHT22;10195;50.868;4.382;2023-03-23T06:45:00;13.40;99.90
20070;DHT22;10195;50.868;4.382;2023-03-23T06:47:29;13.40;99.90
20070;DHT22;10195;50.868;4.382;2023-03-23T06:49:56;13.60;99.90
20070;DHT22;10195;50.868;4.382;2023-03-23T06:52:22;13.60;99.90
20070;DHT22;10195;50.868;4.382;2023-03-23T06:54:49;13.60;99.90
20070;DHT22;10195;50.868;4.382;2023-03-23T06:57:15;13.50;99.90
20070;DHT22;10195;50.868;4.382;2023-03-23T06:59:42;13.40;99.90
20070;DHT22;10195;50.868;4.382;2023-03-23T07:02:09;13.40;99.90
20070;DHT22;10195;50.868;4.382;2023-03-23T07:04:40;13.40;99.90
20070;DHT22;10195;50.868;4.382;2023-03-23T07:07:08;13.20;99.90
20070;DHT22;10195;50.868;4.382;2023-03-23T07:09:34;12.40;99.90
20070;DHT22;10195;50.868;4.382;2023-03-23T07:12:00;12.10;99.90
20070;DHT22;10195;50.868;4.382;2023-03-23T07:14:25;11.90;99.90
20070;DHT22;10195;50.868;4.382;2023-03-23T07:16:51;11.70;99.90
20070;DHT22;10195;50.868;4.382;2023-03-23T07:19:18;11.70;99.90
20070;DHT22;10195;50.868;4.382;2023-03-23T07:21:44;11.60;99.90
20070;DHT22;10195;50.868;4.382;2023-03-23T07:24:11;11.50;99.90
20070;DHT22;10195;50.868;4.382;2023-03-23T07:26:40;11.30;99.90
20070;DHT22;10195;50.868;4.382;2023-03-23T07:29:08;11.20;99.90
20070;DHT22;10195;50.868;4.382;2023-03-23T07:31:34;11.20;99.90
20070;DHT22;10195;50.868;4.382;2023-03-23T07:34:00;11.20;99.90
20070;DHT22;10195;50.868;4.382;2023-03-23T07:36:26;11.20;99.90
20070;DHT22;10195;50.868;4.382;2023-03-23T07:38:52;11.20;99.90
20070;DHT22;10195;50.868;4.382;2023-03-23T07:41:19;11.40;99.90
20070;DHT22;10195;50.868;4.382;2023-03-23T07:43:45;11.50;99.90
20070;DHT22;10195;50.868;4.382;2023-03-23T07:46:10;11.60;99.90
20070;DHT22;10195;50.868;4.382;2023-03-23T07:48:37;11.80;99.90
20070;DHT22;10195;50.868;4.382;2023-03-23T07:51:03;11.90;99.90
20070;DHT22;10195;50.868;4.382;2023-03-23T07:53:29;12.10;99.90
20070;DHT22;10195;50.868;4.382;2023-03-23T07:55:55;12.10;99.90
20070;DHT22;10195;50.868;4.382;2023-03-23T07:58:21;12.20;99.90
20070;DHT22;10195;50.868;4.382;2023-03-23T08:00:46;12.30;99.90
20070;DHT22;10195;50.868;4.382;2023-03-23T08:03:14;12.30;99.90
20070;DHT22;10195;50.868;4.382;2023-03-23T08:05:41;12.50;99.90
20070;DHT22;10195;50.868;4.382;2023-03-23T08:08:08;12.60;99.90
20070;DHT22;10195;50.868;4.382;2023-03-23T08:10:34;12.70;99.90
20070;DHT22;10195;50.868;4.382;2023-03-23T08:13:00;12.60;99.90
20070;DHT22;10195;50.868;4.382;2023-03-23T08:15:26;12.70;99.90
20070;DHT22;10195;50.868;4.382;2023-03-23T08:17:52;12.70;99.90
20070;DHT22;10195;50.868;4.382;2023-03-23T08:20:18;12.70;99.90
20070;DHT22;10195;50.868;4.382;2023-03-23T08:22:53;12.80;99.90
20070;DHT22;10195;50.868;4.382;2023-03-23T08:25:21;12.80;99.90
20070;DHT22;10195;50.868;4.382;2023-03-23T08:27:47;12.50;99.90
20070;DHT22;10195;50.868;4.382;2023-03-23T08:30:18;12.30;99.90
20070;DHT22;10195;50.868;4.382;2023-03-23T08:32:45;12.20;99.90
20070;DHT22;10195;50.868;4.382;2023-03-23T08:35:15;12.30;99.90
20070;DHT22;10195;50.868;4.382;2023-03-23T08:37:41;12.20;99.90
20070;DHT22;10195;50.868;4.382;2023-03-23T08:40:09;12.20;99.90
20070;DHT22;10195;50.868;4.382;2023-03-23T08:42:36;12.00;99.90
20070;DHT22;10195;50.868;4.382;2023-03-23T08:45:07;12.20;99.90
20070;DHT22;10195;50.868;4.382;2023-03-23T08:47:33;12.20;99.90
20070;DHT22;10195;50.868;4.382;2023-03-23T08:49:59;12.30;99.90
20070;DHT22;10195;50.868;4.382;2023-03-23T08:52:25;12.20;99.90
20070;DHT22;10195;50.868;4.382;2023-03-23T08:54:51;12.10;99.90
20070;DHT22;10195;50.868;4.382;2023-03-23T08:57:16;12.10;99.90
20070;DHT22;10195;50.868;4.382;2023-03-23T08:59:43;12.40;99.90
20070;DHT22;10195;50.868;4.382;2023-03-23T09:02:10;12.30;99.90
20070;DHT22;10195;50.868;4.382;2023-03-23T09:04:40;12.40;99.90
20070;DHT22;10195;50.868;4.382;2023-03-23T09:07:12;12.60;99.90
20070;DHT22;10195;50.868;4.382;2023-03-23T09:09:40;12.60;99.90
20070;DHT22;10195;50.868;4.382;2023-03-23T09:12:07;12.60;99.90
20070;DHT22;10195;50.868;4.382;2023-03-23T09:14:34;12.40;99.90
20070;DHT22;10195;50.868;4.382;2023-03-23T09:17:00;12.40;99.90
20070;DHT22;10195;50.868;4.382;2023-03-23T09:19:26;12.60;99.90
20070;DHT22;10195;50.868;4.382;2023-03-23T09:21:52;12.40;99.90
20070;DHT22;10195;50.868;4.382;2023-03-23T09:24:18;12.40;99.90
20070;DHT22;10195;50.868;4.382;2023-03-23T09:26:44;12.60;99.90
20070;DHT22;10195;50.868;4.382;2023-03-23T09:29:10;12.80;99.90
20070;DHT22;10195;50.868;4.382;2023-03-23T09:31:38;13.00;99.90
20070;DHT22;10195;50.868;4.382;2023-03-23T09:34:06;13.10;99.90
20070;DHT22;10195;50.868;4.382;2023-03-23T09:36:35;12.90;99.90
20070;DHT22;10195;50.868;4.382;2023-03-23T09:39:01;12.90;99.90
20070;DHT22;10195;50.868;4.382;2023-03-23T09:45:09;13.00;99.90
20070;DHT22;10195;50.868;4.382;2023-03-23T09:48:00;13.50;99.90
20070;DHT22;10195;50.868;4.382;2023-03-23T09:50:31;14.10;99.90
20070;DHT22;10195;50.868;4.382;2023-03-23T09:55:26;15.30;99.90
20070;DHT22;10195;50.868;4.382;2023-03-23T09:58:20;15.60;99.90
20070;DHT22;10195;50.868;4.382;2023-03-23T10:01:06;15.30;99.90
20070;DHT22;10195;50.868;4.382;2023-03-23T10:03:40;15.10;99.90
20070;DHT22;10195;50.868;4.382;2023-03-23T10:06:10;14.90;99.90
20070;DHT22;10195;50.868;4.382;2023-03-23T10:08:41;15.00;99.90
20070;DHT22;10195;50.868;4.382;2023-03-23T10:23:24;15.40;99.90
20070;DHT22;10195;50.868;4.382;2023-03-23T10:26:15;15.30;99.90
20070;DHT22;10195;50.868;4.382;2023-03-23T10:28:48;15.20;99.90
20070;DHT22;10195;50.868;4.382;2023-03-23T10:31:20;15.20;99.90
20070;DHT22;10195;50.868;4.382;2023-03-23T10:33:50;15.30;99.90
20070;DHT22;10195;50.868;4.382;2023-03-23T10:36:21;15.30;99.90
20070;DHT22;10195;50.868;4.382;2023-03-23T10:41:37;15.60;99.90
20070;DHT22;10195;50.868;4.382;2023-03-23T10:44:29;15.90;99.90
20070;DHT22;10195;50.868;4.382;2023-03-23T10:47:04;16.00;99.90
20070;DHT22;10195;50.868;4.382;2023-03-23T10:49:47;15.70;99.90
20070;DHT22;10195;50.868;4.382;2023-03-23T10:52:39;15.40;99.90
20070;DHT22;10195;50.868;4.382;2023-03-23T10:55:09;15.80;99.90
20070;DHT22;10195;50.868;4.382;2023-03-23T10:57:37;16.20;99.90
20070;DHT22;10195;50.868;4.382;2023-03-23T11:02:41;16.00;99.90
20070;DHT22;10195;50.868;4.382;2023-03-23T11:05:20;15.80;99.90
20070;DHT22;10195;50.868;4.382;2023-03-23T11:07:54;15.90;99.90
20070;DHT22;10195;50.868;4.382;2023-03-23T11:12:47;16.00;99.90
20070;DHT22;10195;50.868;4.382;2023-03-23T11:15:52;16.10;99.90
20070;DHT22;10195;50.868;4.382;2023-03-23T11:18:23;16.40;99.90
20070;DHT22;10195;50.868;4.382;2023-03-23T11:20:58;16.40;99.90
20070;DHT22;10195;50.868;4.382;2023-03-23T11:23:59;16.00;99.90
20070;DHT22;10195;50.868;4.382;2023-03-23T11:26:28;15.70;99.90
20070;DHT22;10195;50.868;4.382;2023-03-23T11:31:35;15.50;99.90
20070;DHT22;10195;50.868;4.382;2023-03-23T11:36:52;15.80;99.90
20070;DHT22;10195;50.868;4.382;2023-03-23T11:39:23;16.00;99.90
20070;DHT22;10195;50.868;4.382;2023-03-23T11:41:51;16.20;99.90
20070;DHT22;10195;50.868;4.382;2023-03-23T11:44:17;16.30;99.90
20070;DHT22;10195;50.868;4.382;2023-03-23T11:47:08;16.40;99.90
20070;DHT22;10195;50.868;4.382;2023-03-23T11:49:54;16.50;99.90
20070;DHT22;10195;50.868;4.382;2023-03-23T11:52:29;16.60;99.90
20070;DHT22;10195;50.868;4.382;2023-03-23T11:55:12;16.60;99.90
20070;DHT22;10195;50.868;4.382;2023-03-23T11:57:40;16.80;99.90
20070;DHT22;10195;50.868;4.382;2023-03-23T12:00:17;16.90;99.90
20070;DHT22;10195;50.868;4.382;2023-03-23T12:05:47;17.20;99.90
20070;DHT22;10195;50.868;4.382;2023-03-23T12:14:21;16.50;99.90
20070;DHT22;10195;50.868;4.382;2023-03-23T12:17:38;16.90;99.90
20070;DHT22;10195;50.868;4.382;2023-03-23T12:22:37;16.80;99.90
20070;DHT22;10195;50.868;4.382;2023-03-23T12:25:16;17.00;99.90
20070;DHT22;10195;50.868;4.382;2023-03-23T12:35:59;16.90;99.90
20070;DHT22;10195;50.868;4.382;2023-03-23T12:38:51;16.90;99.90
20070;DHT22;10195;50.868;4.382;2023-03-23T12:41:27;17.10;99.90
20070;DHT22;10195;50.868;4.382;2023-03-23T12:44:07;17.50;99.90
20070;DHT22;10195;50.868;4.382;2023-03-23T12:54:47;17.30;99.90
20070;DHT22;10195;50.868;4.382;2023-03-23T13:02:33;17.10;99.90
20070;DHT22;10195;50.868;4.382;2023-03-23T13:05:28;16.90;99.90
20070;DHT22;10195;50.868;4.382;2023-03-23T13:08:18;16.70;99.90
20070;DHT22;10195;50.868;4.382;2023-03-23T13:10:47;16.60;99.90
20070;DHT22;10195;50.868;4.382;2023-03-23T13:14:11;16.60;99.90
20070;DHT22;10195;50.868;4.382;2023-03-23T13:16:26;16.60;99.90
20070;DHT22;10195;50.868;4.382;2023-03-23T13:19:19;16.60;99.90
20070;DHT22;10195;50.868;4.382;2023-03-23T13:22:06;16.80;99.90
20070;DHT22;10195;50.868;4.382;2023-03-23T13:24:36;16.80;99.90
20070;DHT22;10195;50.868;4.382;2023-03-23T13:27:04;17.00;99.90
20070;DHT22;10195;50.868;4.382;2023-03-23T13:29:32;17.00;99.90
20070;DHT22;10195;50.868;4.382;2023-03-23T13:32:18;16.90;99.90
20070;DHT22;10195;50.868;4.382;2023-03-23T13:34:46;17.00;99.90
20070;DHT22;10195;50.868;4.382;2023-03-23T13:37:20;16.90;99.90
20070;DHT22;10195;50.868;4.382;2023-03-23T13:42:53;17.30;99.90
20070;DHT22;10195;50.868;4.382;2023-03-23T13:50:57;17.20;99.90
20070;DHT22;10195;50.868;4.382;2023-03-23T13:59:47;16.90;99.90
20070;DHT22;10195;50.868;4.382;2023-03-23T14:02:26;16.70;99.90
20070;DHT22;10195;50.868;4.382;2023-03-23T14:04:50;16.80;99.90
20070;DHT22;10195;50.868;4.382;2023-03-23T14:07:16;16.70;99.90
20070;DHT22;10195;50.868;4.382;2023-03-23T14:09:44;16.60;99.90
20070;DHT22;10195;50.868;4.382;2023-03-23T14:12:28;16.40;99.90
20070;DHT22;10195;50.868;4.382;2023-03-23T14:15:00;16.20;99.90
20070;DHT22;10195;50.868;4.382;2023-03-23T14:17:33;16.30;99.90
20070;DHT22;10195;50.868;4.382;2023-03-23T14:20:00;16.20;99.90
20070;DHT22;10195;50.868;4.382;2023-03-23T14:22:36;16.20;99.90
20070;DHT22;10195;50.868;4.382;2023-03-23T14:25:18;16.40;99.90
20070;DHT22;10195;50.868;4.382;2023-03-23T14:27:46;16.50;99.90
20070;DHT22;10195;50.868;4.382;2023-03-23T14:30:20;16.40;99.90
20070;DHT22;10195;50.868;4.382;2023-03-23T14:32:46;16.40;99.90
20070;DHT22;10195;50.868;4.382;2023-03-23T14:35:27;16.40;99.90
20070;DHT22;10195;50.868;4.382;2023-03-23T14:37:57;16.30;99.90
20070;DHT22;10195;50.868;4.382;2023-03-23T14:40:26;16.30;99.90
20070;DHT22;10195;50.868;4.382;2023-03-23T14:42:52;16.40;99.90
20070;DHT22;10195;50.868;4.382;2023-03-23T14:45:21;16.40;99.90
20070;DHT22;10195;50.868;4.382;2023-03-23T14:47:51;16.40;99.90
20070;DHT22;10195;50.868;4.382;2023-03-23T14:53:30;16.00;99.90
20070;DHT22;10195;50.868;4.382;2023-03-23T14:56:02;16.00;99.90
20070;DHT22;10195;50.868;4.382;2023-03-23T14:58:30;16.00;99.90
20070;DHT22;10195;50.868;4.382;2023-03-23T15:01:11;16.00;99.90
20070;DHT22;10195;50.868;4.382;2023-03-23T15:03:46;16.10;99.90
20070;DHT22;10195;50.868;4.382;2023-03-23T15:06:17;16.20;99.90
20070;DHT22;10195;50.868;4.382;2023-03-23T15:08:45;16.30;99.90
20070;DHT22;10195;50.868;4.382;2023-03-23T15:13:51;16.40;99.90
20070;DHT22;10195;50.868;4.382;2023-03-23T15:16:28;16.40;99.90
20070;DHT22;10195;50.868;4.382;2023-03-23T15:19:01;16.50;99.90
20070;DHT22;10195;50.868;4.382;2023-03-23T15:21:30;16.60;99.90
20070;DHT22;10195;50.868;4.382;2023-03-23T15:23:56;16.50;99.90
20070;DHT22;10195;50.868;4.382;2023-03-23T15:28:50;16.80;99.90
20070;DHT22;10195;50.868;4.382;2023-03-23T15:31:27;16.90;99.90
20070;DHT22;10195;50.868;4.382;2023-03-23T15:33:58;16.80;99.90
20070;DHT22;10195;50.868;4.382;2023-03-23T15:36:32;16.80;99.90
20070;DHT22;10195;50.868;4.382;2023-03-23T15:38:59;16.90;99.90
20070;DHT22;10195;50.868;4.382;2023-03-23T15:41:30;17.00;99.90
20070;DHT22;10195;50.868;4.382;2023-03-23T15:44:10;16.80;99.90
20070;DHT22;10195;50.868;4.382;2023-03-23T15:46:36;16.70;99.90
20070;DHT22;10195;50.868;4.382;2023-03-23T15:49:12;16.70;99.90
20070;DHT22;10195;50.868;4.382;2023-03-23T15:51:39;16.50;99.90
20070;DHT22;10195;50.868;4.382;2023-03-23T15:54:12;16.60;99.90
20070;DHT22;10195;50.868;4.382;2023-03-23T15:56:39;16.60;99.90
20070;DHT22;10195;50.868;4.382;2023-03-23T15:59:04;16.40;99.90
20070;DHT22;10195;50.868;4.382;2023-03-23T16:01:30;16.40;99.90
20070;DHT22;10195;50.868;4.382;2023-03-23T16:04:05;16.50;99.90
20070;DHT22;10195;50.868;4.382;2023-03-23T16:06:32;16.60;99.90
20070;DHT22;10195;50.868;4.382;2023-03-23T16:08:59;16.60;99.90
20070;DHT22;10195;50.868;4.382;2023-03-23T16:11:30;16.60;99.90
20070;DHT22;10195;50.868;4.382;2023-03-23T16:13:56;16.60;99.90
20070;DHT22;10195;50.868;4.382;2023-03-23T16:16:36;16.50;99.90
20070;DHT22;10195;50.868;4.382;2023-03-23T16:19:02;16.30;99.90
20070;DHT22;10195;50.868;4.382;2023-03-23T16:21:28;16.30;99.90
20070;DHT22;10195;50.868;4.382;2023-03-23T16:23:54;16.40;99.90
20070;DHT22;10195;50.868;4.382;2023-03-23T16:26:20;16.60;99.90
20070;DHT22;10195;50.868;4.382;2023-03-23T16:28:46;16.50;99.90
20070;DHT22;10195;50.868;4.382;2023-03-23T16:31:11;16.50;99.90
20070;DHT22;10195;50.868;4.382;2023-03-23T16:33:37;16.50;99.90
20070;DHT22;10195;50.868;4.382;2023-03-23T16:36:03;16.70;99.90
20070;DHT22;10195;50.868;4.382;2023-03-23T16:38:29;16.70;99.90
20070;DHT22;10195;50.868;4.382;2023-03-23T16:40:55;16.60;99.90
20070;DHT22;10195;50.868;4.382;2023-03-23T16:43:20;16.60;99.90
20070;DHT22;10195;50.868;4.382;2023-03-23T16:45:46;16.50;99.90
20070;DHT22;10195;50.868;4.382;2023-03-23T16:48:13;16.20;99.90
20070;DHT22;10195;50.868;4.382;2023-03-23T16:50:41;16.10;99.90
20070;DHT22;10195;50.868;4.382;2023-03-23T16:53:07;16.00;99.90
20070;DHT22;10195;50.868;4.382;2023-03-23T16:55:35;16.00;99.90
20070;DHT22;10195;50.868;4.382;2023-03-23T16:58:01;16.00;99.90
20070;DHT22;10195;50.868;4.382;2023-03-23T17:00:27;15.90;99.90
20070;DHT22;10195;50.868;4.382;2023-03-23T17:02:54;15.90;99.90
20070;DHT22;10195;50.868;4.382;2023-03-23T17:05:24;15.80;99.90
20070;DHT22;10195;50.868;4.382;2023-03-23T17:07:50;15.70;99.90
20070;DHT22;10195;50.868;4.382;2023-03-23T17:10:17;15.70;99.90
20070;DHT22;10195;50.868;4.382;2023-03-23T17:12:43;15.60;99.90
20070;DHT22;10195;50.868;4.382;2023-03-23T17:15:10;15.60;99.90
20070;DHT22;10195;50.868;4.382;2023-03-23T17:17:36;15.50;99.90
20070;DHT22;10195;50.868;4.382;2023-03-23T17:20:02;15.60;99.90
20070;DHT22;10195;50.868;4.382;2023-03-23T17:22:28;15.60;99.90
20070;DHT22;10195;50.868;4.382;2023-03-23T17:24:54;15.60;99.90
20070;DHT22;10195;50.868;4.382;2023-03-23T17:27:22;15.60;99.90
20070;DHT22;10195;50.868;4.382;2023-03-23T17:29:48;15.60;99.90
20070;DHT22;10195;50.868;4.382;2023-03-23T17:32:14;15.60;99.90
20070;DHT22;10195;50.868;4.382;2023-03-23T17:34:40;15.60;99.90